Terminal Aerodrome Forecast
Issued by NWS

Home | Current Version | Previous Version | Text Only | Print | Product List | Glossary Off
Versions: 1 2 3 4 5 6 7 8 9 10 11 12 13 14 15 16 17

821
FTUS43 KOAX 170534
TAFCDR
TAF
KCDR 170534Z 1706/1806 24010KT P6SM BKN120 BKN250
     FM171000 28008KT P6SM BKN100 BKN200
     FM171400 36007KT P6SM OVC100
     FM180000 01006KT 6SM -SHRA BKN025 OVC050=

USA.gov is the U.S. government's official web portal to all federal, state and local government web resources and services.